Time;durP1;ratioP1;P1;durP2;ratioP2;P2;SDS_P1;SDS_P2;PMS_P1;PMS_P2;Temp;Humidity;BMP_temperature;BMP_pressure;BME280_temperature;BME280_humidity;BME280_pressure;Samples;Min_cycle;Max_cycle;Signal;HPM_P1;HPM_P2
2023/09/26 00:01:02;;;;;;;1.92;1.15;;;20.90;70.90;;;;;;5095816;28;20040;-61
2023/09/26 00:03:28;;;;;;;2.70;1.30;;;20.90;70.90;;;;;;5093475;28;20056;-61
2023/09/26 00:05:57;;;;;;;2.97;1.05;;;20.90;70.90;;;;;;5095227;28;20047;-61
2023/09/26 00:08:23;;;;;;;2.88;1.20;;;20.90;70.90;;;;;;5094876;28;20043;-61
2023/09/26 00:10:48;;;;;;;3.08;1.13;;;20.90;70.90;;;;;;5094964;28;20036;-61
2023/09/26 00:13:14;;;;;;;3.30;1.23;;;20.90;70.90;;;;;;5095078;28;20398;-61
2023/09/26 00:15:40;;;;;;;2.53;1.25;;;20.90;71.00;;;;;;5095136;28;20554;-62
2023/09/26 00:18:06;;;;;;;2.45;1.20;;;20.90;70.90;;;;;;5093970;28;20128;-61
2023/09/26 00:20:34;;;;;;;4.00;1.15;;;20.90;70.90;;;;;;5095233;28;20608;-62
2023/09/26 00:23:00;;;;;;;2.85;1.20;;;20.90;70.90;;;;;;5095246;28;20051;-61
2023/09/26 00:25:26;;;;;;;4.28;1.30;;;20.90;71.00;;;;;;5094384;28;20083;-62
2023/09/26 00:27:52;;;;;;;3.25;1.05;;;20.80;70.90;;;;;;5095200;28;20039;-62
2023/09/26 00:30:18;;;;;;;3.22;1.15;;;20.80;70.80;;;;;;5094852;28;20104;-62
2023/09/26 00:32:44;;;;;;;1.85;1.20;;;20.80;70.80;;;;;;5094638;28;20479;-61
2023/09/26 00:35:13;;;;;;;2.67;1.20;;;20.80;70.90;;;;;;5094800;28;20036;-61
2023/09/26 00:37:42;;;;;;;2.78;1.45;;;20.80;70.90;;;;;;5095164;28;20077;-61
2023/09/26 00:40:15;;;;;;;3.03;1.10;;;20.80;70.80;;;;;;5093432;28;20056;-61
2023/09/26 00:42:45;;;;;;;3.67;1.20;;;20.80;70.80;;;;;;5094961;28;20126;-61
2023/09/26 00:45:11;;;;;;;3.60;1.40;;;20.80;70.80;;;;;;5093956;28;20045;-61
2023/09/26 00:47:38;;;;;;;2.72;1.20;;;20.80;70.90;;;;;;5095070;28;20491;-61
2023/09/26 00:50:08;;;;;;;2.75;1.40;;;20.80;70.80;;;;;;5092935;28;20047;-61
2023/09/26 00:52:34;;;;;;;3.00;1.25;;;20.80;70.80;;;;;;5094010;28;20047;-61
2023/09/26 00:55:02;;;;;;;3.88;1.42;;;20.80;70.90;;;;;;5094865;28;20052;-61
2023/09/26 00:57:28;;;;;;;2.92;1.00;;;20.80;70.90;;;;;;5093077;28;20502;-61
2023/09/26 00:59:54;;;;;;;1.92;1.17;;;20.80;70.80;;;;;;5093897;28;20044;-61
2023/09/26 01:02:19;;;;;;;2.35;1.15;;;20.80;70.80;;;;;;5093986;28;20044;-61
2023/09/26 01:04:45;;;;;;;2.33;1.27;;;20.80;70.90;;;;;;5094300;28;20078;-61
2023/09/26 01:07:10;;;;;;;3.08;1.10;;;20.80;70.90;;;;;;5075027;28;20055;-61
2023/09/26 01:09:36;;;;;;;2.78;1.27;;;20.70;70.80;;;;;;5094533;28;20032;-61
2023/09/26 01:12:01;;;;;;;2.53;1.15;;;20.80;70.90;;;;;;5092547;28;20372;-61
2023/09/26 01:14:27;;;;;;;3.47;1.30;;;20.80;70.80;;;;;;5093313;28;20083;-61
2023/09/26 01:16:56;;;;;;;3.00;1.35;;;20.70;70.80;;;;;;5094317;28;20131;-61
2023/09/26 01:19:21;;;;;;;2.78;1.27;;;20.70;70.80;;;;;;5093447;28;20197;-61
2023/09/26 01:21:47;;;;;;;3.35;1.20;;;20.70;70.80;;;;;;5093504;28;20480;-61
2023/09/26 01:24:15;;;;;;;3.28;1.13;;;20.70;70.80;;;;;;5092477;28;20118;-61
2023/09/26 01:26:41;;;;;;;2.45;1.20;;;20.70;70.80;;;;;;5093803;28;20487;-61
2023/09/26 01:29:07;;;;;;;2.10;1.20;;;20.70;70.80;;;;;;5092975;28;20046;-61
2023/09/26 01:31:35;;;;;;;2.67;1.10;;;20.70;70.80;;;;;;5093046;28;20090;-61
2023/09/26 01:34:02;;;;;;;2.92;1.30;;;20.70;70.80;;;;;;5092813;28;20048;-61
2023/09/26 01:36:28;;;;;;;2.20;1.23;;;20.70;70.80;;;;;;5093259;28;20052;-61
2023/09/26 01:38:54;;;;;;;2.28;1.25;;;20.70;70.80;;;;;;5085600;28;20044;-61
2023/09/26 01:41:21;;;;;;;3.70;1.23;;;20.70;70.80;;;;;;5072461;28;20046;-61
2023/09/26 01:43:47;;;;;;;2.60;1.03;;;20.70;70.70;;;;;;5071984;28;20040;-61
2023/09/26 01:46:13;;;;;;;2.63;1.23;;;20.70;70.80;;;;;;5073048;28;20119;-61
2023/09/26 01:48:38;;;;;;;3.35;1.10;;;20.70;70.80;;;;;;5072656;28;20096;-60
2023/09/26 01:51:07;;;;;;;3.55;1.50;;;20.70;70.70;;;;;;5072672;28;20036;-61
2023/09/26 01:53:32;;;;;;;2.33;1.10;;;20.70;70.80;;;;;;5072625;28;20041;-61
2023/09/26 01:55:59;;;;;;;2.70;1.13;;;20.70;70.70;;;;;;5072892;28;20164;-61
2023/09/26 01:58:24;;;;;;;2.35;1.27;;;20.70;70.80;;;;;;5072902;28;20036;-60
2023/09/26 02:00:50;;;;;;;2.13;1.00;;;20.60;70.70;;;;;;5072879;28;20044;-58
2023/09/26 02:03:16;;;;;;;2.38;1.20;;;20.60;70.70;;;;;;5070737;28;20435;-59
2023/09/26 02:05:41;;;;;;;2.83;1.20;;;20.60;70.70;;;;;;5071783;28;20043;-59
2023/09/26 02:08:07;;;;;;;2.55;1.27;;;20.60;70.70;;;;;;5071849;28;20122;-59
2023/09/26 02:10:32;;;;;;;2.65;1.25;;;20.60;70.70;;;;;;5072531;28;20036;-58
2023/09/26 02:12:58;;;;;;;2.90;1.13;;;20.60;70.70;;;;;;5071579;28;20399;-58
2023/09/26 02:15:23;;;;;;;1.77;1.00;;;20.60;70.70;;;;;;5072177;28;20048;-59
2023/09/26 02:17:49;;;;;;;2.47;1.10;;;20.60;70.70;;;;;;5072356;28;20490;-59
2023/09/26 02:20:16;;;;;;;2.97;1.27;;;20.60;70.70;;;;;;5071197;28;20044;-60
2023/09/26 02:22:42;;;;;;;2.90;1.40;;;20.60;70.70;;;;;;5072743;28;20094;-59
2023/09/26 02:25:11;;;;;;;3.70;1.30;;;20.60;70.70;;;;;;5072037;28;20041;-59
2023/09/26 02:27:38;;;;;;;2.75;1.23;;;20.60;70.70;;;;;;5072669;28;20045;-59
2023/09/26 02:30:05;;;;;;;1.63;1.00;;;20.60;70.70;;;;;;5073884;28;20036;-59
2023/09/26 02:32:32;;;;;;;2.13;1.20;;;20.60;70.70;;;;;;5082176;28;20127;-59
2023/09/26 02:34:57;;;;;;;3.08;1.20;;;20.60;70.70;;;;;;5072748;28;20109;-59
2023/09/26 02:37:23;;;;;;;2.60;1.05;;;20.60;70.70;;;;;;5072488;28;20662;-59
2023/09/26 02:39:49;;;;;;;2.50;1.30;;;20.60;70.70;;;;;;5093071;28;20059;-59
2023/09/26 02:42:15;;;;;;;2.15;1.20;;;20.60;70.70;;;;;;5092499;28;20044;-59
2023/09/26 02:44:41;;;;;;;2.22;1.33;;;20.60;70.70;;;;;;5091808;28;20040;-59
2023/09/26 02:47:06;;;;;;;2.28;1.25;;;20.60;70.70;;;;;;5092657;28;20047;-59
2023/09/26 02:49:32;;;;;;;2.78;1.13;;;20.60;71.30;;;;;;5092109;28;20043;-59
2023/09/26 02:51:57;;;;;;;1.90;1.00;;;20.60;70.70;;;;;;5091985;28;20044;-59
2023/09/26 02:54:23;;;;;;;3.40;1.13;;;20.60;70.70;;;;;;5092205;28;20047;-59
2023/09/26 02:56:48;;;;;;;1.83;1.13;;;20.60;70.70;;;;;;5092489;28;20054;-59
2023/09/26 02:59:14;;;;;;;3.38;1.23;;;20.60;70.70;;;;;;5076189;28;20045;-60
2023/09/26 03:01:40;;;;;;;1.95;1.20;;;20.60;70.70;;;;;;5072559;28;20045;-59
2023/09/26 03:04:05;;;;;;;2.78;1.30;;;20.60;70.70;;;;;;5071673;28;20092;-59
2023/09/26 03:06:31;;;;;;;2.35;1.27;;;20.50;70.60;;;;;;5071741;28;20048;-59
2023/09/26 03:08:56;;;;;;;2.75;1.42;;;20.50;70.80;;;;;;5072329;28;20119;-59
2023/09/26 03:11:22;;;;;;;2.58;1.20;;;20.60;70.70;;;;;;5071404;28;20048;-59
2023/09/26 03:13:47;;;;;;;2.22;1.20;;;20.50;70.60;;;;;;5070930;28;20094;-61
2023/09/26 03:16:14;;;;;;;1.85;0.98;;;20.50;70.60;;;;;;5071889;28;20036;-61
2023/09/26 03:18:40;;;;;;;2.13;1.13;;;20.60;70.70;;;;;;5071627;28;20139;-61
2023/09/26 03:21:06;;;;;;;1.95;1.20;;;20.50;70.60;;;;;;5071563;28;20052;-61
2023/09/26 03:23:32;;;;;;;2.08;1.10;;;20.50;70.60;;;;;;5072388;28;20045;-61
2023/09/26 03:25:58;;;;;;;2.97;1.30;;;20.50;70.60;;;;;;5072190;28;20033;-61
2023/09/26 03:28:23;;;;;;;2.33;1.10;;;20.50;70.60;;;;;;5071175;28;20052;-61
2023/09/26 03:30:49;;;;;;;2.90;1.48;;;20.50;70.60;;;;;;5072127;28;20047;-61
2023/09/26 03:33:14;;;;;;;2.05;1.10;;;20.50;70.60;;;;;;5071481;28;20076;-61
2023/09/26 03:35:40;;;;;;;2.50;1.20;;;20.50;70.60;;;;;;5084176;28;20072;-61
2023/09/26 03:38:06;;;;;;;1.58;1.10;;;20.50;70.60;;;;;;5092114;28;20403;-61
2023/09/26 03:40:31;;;;;;;2.00;1.00;;;20.50;70.60;;;;;;5090804;28;20365;-61
2023/09/26 03:42:57;;;;;;;2.45;1.10;;;20.50;70.60;;;;;;5091674;28;20080;-61
2023/09/26 03:45:23;;;;;;;1.50;0.90;;;20.50;70.60;;;;;;5091951;28;20101;-61
2023/09/26 03:47:49;;;;;;;1.88;1.10;;;20.50;71.20;;;;;;5091332;28;20566;-61
2023/09/26 03:50:15;;;;;;;2.08;1.00;;;20.50;70.60;;;;;;5091549;28;20425;-61
2023/09/26 03:52:41;;;;;;;1.83;1.15;;;20.50;70.60;;;;;;5092055;28;20557;-61
2023/09/26 03:55:07;;;;;;;2.10;1.10;;;20.40;70.50;;;;;;5094575;28;20071;-61
2023/09/26 03:57:33;;;;;;;2.47;1.08;;;20.40;70.50;;;;;;5095620;28;20089;-61
2023/09/26 03:59:59;;;;;;;2.17;1.25;;;20.40;70.50;;;;;;5095401;28;20052;-61
2023/09/26 04:02:25;;;;;;;3.42;1.17;;;20.40;70.50;;;;;;5081533;28;20488;-61
2023/09/26 04:04:50;;;;;;;2.90;1.30;;;20.40;70.50;;;;;;5074737;28;20059;-61
2023/09/26 04:07:16;;;;;;;2.47;1.20;;;20.40;70.50;;;;;;5074371;28;20080;-61
2023/09/26 04:09:41;;;;;;;2.13;1.10;;;20.40;70.50;;;;;;5074577;28;20041;-61
2023/09/26 04:12:07;;;;;;;1.40;1.00;;;20.40;70.50;;;;;;5074866;28;20040;-62
2023/09/26 04:14:32;;;;;;;2.42;1.05;;;20.40;70.60;;;;;;5074979;28;20036;-61
2023/09/26 04:16:58;;;;;;;2.80;1.27;;;20.40;70.50;;;;;;5074859;28;20459;-61
2023/09/26 04:19:24;;;;;;;2.72;1.30;;;20.40;70.50;;;;;;5074960;28;20043;-62
2023/09/26 04:21:52;;;;;;;1.70;0.90;;;20.40;70.50;;;;;;5075155;28;20040;-61
2023/09/26 04:24:18;;;;;;;2.25;1.05;;;20.40;70.50;;;;;;5072888;28;20484;-61
2023/09/26 04:26:44;;;;;;;2.70;1.15;;;20.40;70.50;;;;;;5075034;28;20051;-61
2023/09/26 04:29:10;;;;;;;1.85;1.17;;;20.40;70.60;;;;;;5074162;28;20044;-61
2023/09/26 04:31:35;;;;;;;1.95;1.25;;;20.40;70.50;;;;;;5073633;28;20037;-61
2023/09/26 04:34:01;;;;;;;3.22;1.27;;;20.40;70.50;;;;;;5074817;28;20487;-61
2023/09/26 04:36:29;;;;;;;2.95;1.30;;;20.40;70.50;;;;;;5074384;28;20128;-61
2023/09/26 04:38:54;;;;;;;2.05;1.15;;;20.40;71.10;;;;;;5074416;28;20040;-61
2023/09/26 04:41:20;;;;;;;2.08;1.00;;;20.40;70.50;;;;;;5074359;28;20050;-61
2023/09/26 04:43:45;;;;;;;2.42;1.25;;;20.40;70.50;;;;;;5074144;28;20048;-61
2023/09/26 04:46:12;;;;;;;3.20;1.30;;;20.40;70.50;;;;;;5073373;28;20044;-61
2023/09/26 04:48:40;;;;;;;2.15;1.13;;;20.30;70.50;;;;;;5074536;28;20492;-61
2023/09/26 04:51:15;;;;;;;2.53;1.17;;;20.30;70.50;;;;;;5071888;28;20052;-61
2023/09/26 04:53:41;;;;;;;1.73;0.90;;;20.30;70.50;;;;;;5074549;28;20086;-61
2023/09/26 04:56:07;;;;;;;1.90;1.10;;;20.30;70.50;;;;;;5073830;28;20044;-61
2023/09/26 04:58:33;;;;;;;2.50;1.00;;;20.30;70.50;;;;;;5073578;28;20045;-61
2023/09/26 05:01:00;;;;;;;3.25;1.10;;;20.30;70.50;;;;;;5074333;28;20036;-61
2023/09/26 05:03:27;;;;;;;3.17;1.50;;;20.30;70.50;;;;;;5073291;28;20110;-61
2023/09/26 05:05:53;;;;;;;2.33;1.17;;;20.30;70.50;;;;;;5073496;28;20127;-61
2023/09/26 05:08:18;;;;;;;2.58;1.20;;;20.30;70.50;;;;;;5073807;28;20086;-61
2023/09/26 05:10:44;;;;;;;2.45;1.40;;;20.30;70.50;;;;;;5073825;28;20469;-61
2023/09/26 05:13:09;;;;;;;2.95;0.98;;;20.30;70.50;;;;;;5072953;28;20052;-61
2023/09/26 05:15:35;;;;;;;2.53;1.40;;;20.30;70.50;;;;;;5073766;28;20045;-61
2023/09/26 05:18:02;;;;;;;1.85;0.90;;;20.30;70.50;;;;;;5073791;28;20036;-61
2023/09/26 05:20:28;;;;;;;1.73;1.10;;;20.30;70.50;;;;;;5073402;28;20054;-60
2023/09/26 05:22:54;;;;;;;2.28;1.15;;;20.30;70.50;;;;;;5074120;28;20040;-61
2023/09/26 05:25:19;;;;;;;1.85;1.00;;;20.30;70.50;;;;;;5073255;28;20059;-61
2023/09/26 05:27:45;;;;;;;2.78;1.25;;;20.30;70.50;;;;;;5073165;28;20040;-61
2023/09/26 05:30:14;;;;;;;2.13;1.25;;;20.30;70.50;;;;;;5073358;28;20500;-60
2023/09/26 05:32:40;;;;;;;5.32;1.27;;;20.30;70.50;;;;;;5072235;28;20129;-60
2023/09/26 05:35:07;;;;;;;3.83;1.45;;;20.30;70.50;;;;;;5072656;28;20044;-61
2023/09/26 05:37:33;;;;;;;2.78;1.30;;;20.30;70.40;;;;;;5073667;28;20135;-61
2023/09/26 05:39:59;;;;;;;2.97;1.23;;;20.30;70.30;;;;;;5073252;28;20036;-61
2023/09/26 05:42:25;;;;;;;3.83;1.23;;;20.30;70.30;;;;;;5072289;28;20439;-61
2023/09/26 05:44:51;;;;;;;4.72;1.30;;;20.30;70.30;;;;;;5073364;28;20571;-61
2023/09/26 05:47:16;;;;;;;2.45;1.38;;;20.30;70.30;;;;;;5072397;28;20127;-60
2023/09/26 05:49:42;;;;;;;6.47;1.50;;;20.30;70.30;;;;;;5073148;28;20124;-61
2023/09/26 05:52:07;;;;;;;5.57;1.80;;;20.30;70.40;;;;;;5072876;28;20468;-59
2023/09/26 05:54:33;;;;;;;3.75;1.40;;;20.30;70.40;;;;;;5072004;28;20040;-59
2023/09/26 05:56:59;;;;;;;4.20;1.25;;;20.30;70.30;;;;;;5071754;28;20048;-60
2023/09/26 05:59:25;;;;;;;6.90;1.73;;;20.30;70.30;;;;;;5072737;28;20111;-60
2023/09/26 06:01:50;;;;;;;7.05;1.80;;;20.30;70.40;;;;;;5072577;28;20452;-61
2023/09/26 06:04:16;;;;;;;10.25;1.65;;;20.30;70.40;;;;;;5073064;28;20491;-60
2023/09/26 06:06:42;;;;;;;6.18;1.58;;;20.30;70.40;;;;;;5072714;28;20037;-62
2023/09/26 06:09:08;;;;;;;6.63;1.55;;;20.30;70.40;;;;;;5072174;28;20082;-61
2023/09/26 06:11:34;;;;;;;5.88;1.40;;;20.30;70.40;;;;;;5072758;28;20044;-60
2023/09/26 06:13:59;;;;;;;8.68;1.63;;;20.30;70.40;;;;;;5072704;28;20501;-60
2023/09/26 06:16:25;;;;;;;6.22;1.70;;;20.30;70.50;;;;;;5071560;28;20186;-61
2023/09/26 06:18:52;;;;;;;7.03;1.70;;;20.30;70.50;;;;;;5072812;28;20044;-60
2023/09/26 06:21:18;;;;;;;4.43;1.10;;;20.30;70.50;;;;;;5072427;28;20029;-61
2023/09/26 06:23:43;;;;;;;4.60;1.40;;;20.30;70.50;;;;;;5072157;28;20036;-60
2023/09/26 06:26:09;;;;;;;4.88;1.50;;;20.30;70.50;;;;;;5072452;28;20066;-61
2023/09/26 06:28:35;;;;;;;4.43;1.60;;;20.30;70.60;;;;;;5072297;28;20082;-61
2023/09/26 06:31:05;;;;;;;7.85;1.70;;;20.30;70.60;;;;;;5072409;28;20447;-61
2023/09/26 06:33:31;;;;;;;4.05;1.60;;;20.30;70.80;;;;;;5072744;28;20129;-61
2023/09/26 06:35:56;;;;;;;4.28;1.70;;;20.40;70.80;;;;;;5072643;28;20495;-61
2023/09/26 06:38:22;;;;;;;7.10;1.70;;;20.30;70.90;;;;;;5071631;28;20420;-61
2023/09/26 06:40:47;;;;;;;5.10;1.60;;;20.30;70.90;;;;;;5072635;28;20045;-62
2023/09/26 06:43:13;;;;;;;4.93;1.65;;;20.30;71.00;;;;;;5071622;28;20067;-61
2023/09/26 06:45:39;;;;;;;4.65;1.80;;;20.40;71.10;;;;;;5071108;28;20047;-61
2023/09/26 06:48:05;;;;;;;8.20;1.80;;;20.40;71.20;;;;;;5071585;28;20119;-60
2023/09/26 06:50:32;;;;;;;5.38;1.75;;;20.40;71.20;;;;;;5071373;28;20029;-61
2023/09/26 06:52:57;;;;;;;4.90;2.03;;;20.40;71.30;;;;;;5071937;28;20499;-60
2023/09/26 06:55:23;;;;;;;3.55;1.60;;;20.40;71.30;;;;;;5071460;28;20573;-60
2023/09/26 06:57:48;;;;;;;3.42;1.73;;;20.40;71.30;;;;;;5072109;28;20041;-61
2023/09/26 07:00:16;;;;;;;3.55;1.55;;;20.40;71.30;;;;;;5072170;28;20067;-60
2023/09/26 07:02:42;;;;;;;5.15;2.00;;;20.40;71.40;;;;;;5072228;28;20064;-60
2023/09/26 07:05:08;;;;;;;5.43;1.60;;;20.40;71.40;;;;;;5071867;28;20050;-60
2023/09/26 07:07:34;;;;;;;3.17;1.60;;;20.40;71.50;;;;;;5069139;28;20039;-60
2023/09/26 07:10:01;;;;;;;5.32;1.63;;;20.40;71.50;;;;;;5071841;28;20067;-60
2023/09/26 07:12:26;;;;;;;3.78;1.40;;;20.40;71.50;;;;;;5071531;28;20071;-60
2023/09/26 07:14:52;;;;;;;3.78;2.10;;;20.40;71.50;;;;;;5072389;28;20407;-60
2023/09/26 07:17:18;;;;;;;3.47;1.70;;;20.40;71.50;;;;;;5071482;28;20079;-59
2023/09/26 07:19:44;;;;;;;5.07;1.58;;;20.40;71.50;;;;;;5071702;28;20043;-59
2023/09/26 07:22:10;;;;;;;3.85;1.50;;;20.40;71.50;;;;;;5071381;28;20514;-60
2023/09/26 07:24:36;;;;;;;2.95;1.70;;;20.40;71.60;;;;;;5071754;28;20052;-60
2023/09/26 07:27:02;;;;;;;5.45;1.80;;;20.40;71.60;;;;;;5070136;28;20037;-60
2023/09/26 07:29:27;;;;;;;2.88;1.60;;;20.40;71.60;;;;;;5074492;28;20067;-59
2023/09/26 07:31:54;;;;;;;3.75;1.58;;;20.40;71.60;;;;;;5075589;28;20369;-60
2023/09/26 07:34:20;;;;;;;6.93;1.70;;;20.40;71.60;;;;;;5074740;28;20044;-61
2023/09/26 07:36:46;;;;;;;5.80;1.95;;;20.40;71.60;;;;;;5075267;28;20048;-60
2023/09/26 07:39:14;;;;;;;6.15;1.85;;;20.40;71.60;;;;;;5073830;28;20059;-60
2023/09/26 07:41:40;;;;;;;;;;;20.50;71.60;;;;;;5075598;28;20522;-60
2023/09/26 07:44:06;;;;;;;3.45;1.50;;;20.40;71.50;;;;;;5074360;28;20010;-59
2023/09/26 07:46:31;;;;;;;5.55;1.50;;;20.40;71.50;;;;;;5074760;28;20106;-59
2023/09/26 07:48:57;;;;;;;4.97;2.17;;;20.40;71.50;;;;;;5074397;28;20383;-59
2023/09/26 07:51:22;;;;;;;4.40;1.73;;;20.40;71.50;;;;;;5074891;28;20048;-60
2023/09/26 07:53:48;;;;;;;9.07;2.33;;;20.40;71.50;;;;;;5073523;28;20036;-59
2023/09/26 07:56:13;;;;;;;8.85;2.40;;;20.40;71.50;;;;;;5075141;28;20048;-60
2023/09/26 07:58:39;;;;;;;8.20;2.08;;;20.40;71.70;;;;;;5074659;28;20037;-60
2023/09/26 08:01:09;;;;;;;8.40;2.30;;;20.50;71.90;;;;;;5073899;28;20048;-60
2023/09/26 08:03:38;;;;;;;6.85;2.17;;;20.50;72.10;;;;;;5074952;28;20049;-60
2023/09/26 08:06:04;;;;;;;5.60;1.80;;;20.50;72.10;;;;;;5074444;28;20041;-60
2023/09/26 08:08:30;;;;;;;7.88;2.28;;;20.50;72.10;;;;;;5074605;28;20052;-60
2023/09/26 08:10:56;;;;;;;7.60;2.17;;;20.50;72.20;;;;;;5088045;28;20082;-60
2023/09/26 08:13:22;;;;;;;6.95;1.60;;;20.50;72.20;;;;;;5094666;28;20040;-60
2023/09/26 08:15:48;;;;;;;6.50;1.98;;;20.60;72.20;;;;;;5074981;28;20052;-60
2023/09/26 08:18:14;;;;;;;6.53;1.95;;;20.60;72.30;;;;;;5074836;28;20563;-60
2023/09/26 08:20:39;;;;;;;6.07;1.80;;;20.60;72.40;;;;;;5074979;28;20049;-60
2023/09/26 08:23:05;;;;;;;9.35;2.22;;;20.60;72.30;;;;;;5074259;28;20036;-60
2023/09/26 08:25:32;;;;;;;11.23;2.05;;;20.60;72.30;;;;;;5074873;28;20063;-60
2023/09/26 08:27:58;;;;;;;9.95;1.73;;;20.60;72.30;;;;;;5074771;28;20083;-59
2023/09/26 08:30:23;;;;;;;8.25;1.90;;;20.60;72.30;;;;;;5056932;28;20077;-60
2023/09/26 08:32:49;;;;;;;12.20;2.00;;;20.70;72.40;;;;;;5054670;28;20103;-60
2023/09/26 08:35:14;;;;;;;7.15;2.00;;;20.70;72.40;;;;;;5068151;28;20040;-60
2023/09/26 08:37:40;;;;;;;6.03;1.90;;;20.70;72.40;;;;;;5074042;28;20049;-60
2023/09/26 08:40:09;;;;;;;4.93;1.90;;;20.70;72.40;;;;;;5081179;28;20115;-60
2023/09/26 08:42:37;;;;;;;5.45;1.75;;;20.70;72.40;;;;;;5094358;28;20049;-60
2023/09/26 08:45:03;;;;;;;;;;;20.70;72.40;;;;;;5092478;28;20089;-61
2023/09/26 08:47:29;;;;;;;7.22;1.88;;;20.70;72.40;;;;;;5094540;28;19920;-61
2023/09/26 08:49:55;;;;;;;6.65;2.10;;;20.70;73.00;;;;;;5094231;28;20042;-60
2023/09/26 08:52:21;;;;;;;7.97;1.90;;;20.70;72.30;;;;;;5091481;28;20052;-60
2023/09/26 08:54:47;;;;;;;7.13;1.73;;;20.70;72.20;;;;;;5093052;28;20483;-59
2023/09/26 08:57:13;;;;;;;4.95;2.17;;;20.70;72.00;;;;;;5092677;28;20101;-59
2023/09/26 08:59:39;;;;;;;7.05;2.10;;;20.70;71.90;;;;;;5086569;28;20048;-60
2023/09/26 09:02:04;;;;;;;9.35;2.08;;;20.70;72.00;;;;;;5072355;28;20105;-60
2023/09/26 09:04:30;;;;;;;6.90;2.05;;;20.70;72.00;;;;;;5066173;28;20072;-59
2023/09/26 09:07:02;;;;;;;8.50;2.05;;;20.70;72.00;;;;;;5054168;28;20495;-60
2023/09/26 09:09:28;;;;;;;6.65;2.13;;;20.70;72.00;;;;;;5073827;28;20052;-60
2023/09/26 09:11:54;;;;;;;6.10;2.25;;;20.70;72.00;;;;;;5093961;28;20036;-59
2023/09/26 09:14:33;;;;;;;5.90;2.10;;;20.70;72.00;;;;;;5089466;28;20090;-59
2023/09/26 09:16:58;;;;;;;8.95;2.20;;;20.80;72.10;;;;;;5073739;28;20495;-60
2023/09/26 09:19:47;;;;;;;4.75;1.80;;;20.70;72.10;;;;;;5073260;28;20037;-59
2023/09/26 09:22:20;;;;;;;6.40;1.73;;;20.80;72.10;;;;;;5073727;28;20039;-60
2023/09/26 09:24:56;;;;;;;6.20;2.05;;;20.80;72.10;;;;;;5071814;28;20116;-60
2023/09/26 09:27:34;;;;;;;4.80;1.70;;;20.80;72.20;;;;;;5070955;28;20400;-60
2023/09/26 09:30:19;;;;;;;5.05;1.90;;;20.80;72.20;;;;;;5073146;28;20037;-61
2023/09/26 09:32:45;;;;;;;6.80;2.13;;;20.80;72.20;;;;;;5071809;28;20068;-61
2023/09/26 09:35:11;;;;;;;7.05;2.15;;;20.80;72.20;;;;;;5072398;28;20076;-61
2023/09/26 09:37:37;;;;;;;3.38;1.67;;;20.80;72.20;;;;;;5072582;28;20549;-61
2023/09/26 09:40:04;;;;;;;6.20;1.95;;;20.80;72.10;;;;;;5072670;28;20036;-61
2023/09/26 09:42:30;;;;;;;8.23;2.35;;;20.80;72.00;;;;;;5072482;28;20052;-59
2023/09/26 09:44:56;;;;;;;6.80;2.10;;;20.80;72.00;;;;;;5073660;28;20507;-61
2023/09/26 09:47:23;;;;;;;8.68;2.20;;;20.80;72.10;;;;;;5072383;28;20044;-61
2023/09/26 09:49:49;;;;;;;6.40;1.90;;;20.80;72.10;;;;;;5073672;28;20063;-61
2023/09/26 09:52:17;;;;;;;6.15;2.40;;;20.90;72.00;;;;;;5072153;28;20039;-61
2023/09/26 09:54:46;;;;;;;6.72;2.55;;;20.90;72.00;;;;;;5072936;28;20101;-61
2023/09/26 09:57:14;;;;;;;9.80;3.15;;;20.90;72.10;;;;;;5072999;28;20529;-60
2023/09/26 09:59:41;;;;;;;8.32;2.88;;;20.90;72.10;;;;;;5073067;28;20048;-60
2023/09/26 10:02:10;;;;;;;11.40;3.15;;;20.80;72.00;;;;;;5070841;28;20117;-60
2023/09/26 10:04:36;;;;;;;11.48;3.65;;;20.90;72.10;;;;;;5073322;28;20044;-60
2023/09/26 10:07:01;;;;;;;13.30;3.80;;;20.90;72.20;;;;;;5071435;28;20498;-60
2023/09/26 10:09:27;;;;;;;11.38;3.58;;;20.90;72.70;;;;;;5072062;28;20126;-61
2023/09/26 10:11:53;;;;;;;11.05;3.92;;;20.90;72.20;;;;;;5071464;28;20514;-60
2023/09/26 10:14:22;;;;;;;13.05;4.10;;;20.90;72.70;;;;;;5054700;28;20036;-60
2023/09/26 10:16:49;;;;;;;11.27;3.63;;;20.90;72.20;;;;;;5072270;28;20044;-61
2023/09/26 10:19:16;;;;;;;10.52;3.70;;;20.90;72.20;;;;;;5072535;28;20051;-60
2023/09/26 10:21:41;;;;;;;10.60;3.83;;;20.90;72.20;;;;;;5072224;28;20054;-60
2023/09/26 10:24:13;;;;;;;15.30;4.30;;;21.00;72.20;;;;;;5071015;28;20127;-60
2023/09/26 10:26:43;;;;;;;11.95;4.07;;;21.00;72.20;;;;;;5072594;28;20044;-60
2023/09/26 10:29:11;;;;;;;15.00;4.43;;;21.00;72.20;;;;;;5070838;28;20472;-60
2023/09/26 10:31:41;;;;;;;;;;;21.00;72.10;;;;;;5073552;28;20170;-60
2023/09/26 10:34:06;;;;;;;11.98;4.20;;;21.00;72.10;;;;;;5050633;28;20391;-60
2023/09/26 10:36:34;;;;;;;11.88;4.05;;;21.00;72.10;;;;;;5052143;28;20049;-60
2023/09/26 10:39:05;;;;;;;9.98;3.50;;;21.00;72.00;;;;;;5052667;28;20045;-60
2023/09/26 10:41:31;;;;;;;13.02;4.05;;;21.00;72.10;;;;;;5052323;28;20505;-60
2023/09/26 10:43:57;;;;;;;9.32;3.55;;;21.00;72.00;;;;;;5051729;28;20044;-60
2023/09/26 10:46:23;;;;;;;11.80;3.50;;;21.10;72.10;;;;;;5051607;28;20095;-60
2023/09/26 10:48:48;;;;;;;10.70;4.13;;;21.10;72.00;;;;;;5051015;28;20068;-60
2023/09/26 10:51:15;;;;;;;10.85;3.63;;;21.10;72.00;;;;;;5075356;28;20037;-60
2023/09/26 10:53:41;;;;;;;13.13;3.88;;;21.10;72.00;;;;;;5072532;28;20052;-60
2023/09/26 10:56:08;;;;;;;10.20;4.25;;;21.10;72.00;;;;;;5073370;28;20053;-60
2023/09/26 10:58:34;;;;;;;8.43;3.10;;;21.10;72.00;;;;;;5071316;28;20043;-60
2023/09/26 11:00:59;;;;;;;10.07;3.65;;;21.10;72.00;;;;;;5072150;28;20048;-60
2023/09/26 11:03:25;;;;;;;10.10;3.88;;;21.10;72.00;;;;;;5074736;28;20052;-60
2023/09/26 11:05:51;;;;;;;10.00;3.33;;;21.10;71.90;;;;;;5076060;28;20509;-60
2023/09/26 11:08:17;;;;;;;8.15;3.50;;;21.10;71.90;;;;;;5076097;28;20500;-60
2023/09/26 11:10:47;;;;;;;9.50;3.38;;;21.10;71.90;;;;;;5085353;28;20051;-60
2023/09/26 11:13:13;;;;;;;10.57;3.00;;;21.10;71.90;;;;;;5096137;28;20518;-60
2023/09/26 11:15:38;;;;;;;8.02;3.42;;;21.10;71.90;;;;;;5096277;28;20044;-60
2023/09/26 11:18:04;;;;;;;10.40;3.67;;;21.10;71.90;;;;;;5095759;28;20043;-60
2023/09/26 11:20:30;;;;;;;12.90;3.03;;;21.10;71.90;;;;;;5096818;28;20079;-60
2023/09/26 11:22:55;;;;;;;8.50;3.55;;;21.10;71.90;;;;;;5095295;28;20395;-59
2023/09/26 11:25:21;;;;;;;12.65;3.90;;;21.20;71.90;;;;;;5095520;28;20040;-60
2023/09/26 11:27:47;;;;;;;8.98;3.72;;;21.20;71.80;;;;;;5096239;28;20194;-59
2023/09/26 11:30:17;;;;;;;8.05;3.17;;;21.20;71.80;;;;;;5095572;28;20036;-59
2023/09/26 11:32:48;;;;;;;8.38;3.30;;;21.20;72.30;;;;;;5096094;28;20086;-59
2023/09/26 11:35:18;;;;;;;9.15;3.17;;;21.20;71.60;;;;;;5094859;28;20081;-59
2023/09/26 11:37:55;;;;;;;8.32;3.17;;;21.20;71.40;;;;;;5096064;28;20491;-60
2023/09/26 11:40:24;;;;;;;10.68;3.30;;;21.20;71.30;;;;;;5094226;28;20105;-60
2023/09/26 11:42:51;;;;;;;9.05;3.63;;;21.20;71.20;;;;;;5096152;28;20119;-60
2023/09/26 11:45:27;;;;;;;9.88;2.90;;;21.20;71.10;;;;;;5095500;28;20578;-59
2023/09/26 11:47:54;;;;;;;8.07;3.40;;;21.20;71.00;;;;;;5095137;28;20051;-60
2023/09/26 11:50:20;;;;;;;8.52;3.22;;;21.20;71.00;;;;;;5095325;28;20040;-60
2023/09/26 11:52:45;;;;;;;7.95;2.83;;;21.20;71.00;;;;;;5096071;28;20040;-60
2023/09/26 11:55:16;;;;;;;8.55;3.55;;;21.20;71.00;;;;;;5093500;28;20105;-60
2023/09/26 11:57:43;;;;;;;7.45;3.05;;;21.20;70.90;;;;;;5095714;28;20052;-59
2023/09/26 12:00:11;;;;;;;9.98;3.00;;;21.20;71.00;;;;;;5094066;28;20059;-61
2023/09/26 12:02:38;;;;;;;7.15;2.78;;;21.20;71.00;;;;;;5095844;28;20052;-57
2023/09/26 12:05:06;;;;;;;7.40;2.75;;;21.20;70.90;;;;;;5095113;28;20094;-60
2023/09/26 12:07:33;;;;;;;6.95;3.20;;;21.20;70.90;;;;;;5093641;28;20110;-60
2023/09/26 12:09:58;;;;;;;11.35;2.90;;;21.20;71.20;;;;;;5095734;28;20047;-60
2023/09/26 12:12:24;;;;;;;10.93;2.83;;;21.20;71.10;;;;;;5095196;28;20036;-59
2023/09/26 12:14:51;;;;;;;8.35;2.70;;;21.20;71.10;;;;;;5094134;28;20050;-59
2023/09/26 12:17:17;;;;;;;8.82;2.80;;;21.20;71.10;;;;;;5093796;28;20052;-59
2023/09/26 12:19:42;;;;;;;8.32;3.00;;;21.20;71.10;;;;;;5095129;28;20044;-59
2023/09/26 12:22:08;;;;;;;8.75;3.10;;;21.20;71.10;;;;;;5094487;28;20462;-60
2023/09/26 12:24:33;;;;;;;7.40;2.85;;;21.20;71.00;;;;;;5093936;28;20047;-59
2023/09/26 12:27:00;;;;;;;7.25;3.00;;;21.30;71.00;;;;;;5095076;28;20040;-59
2023/09/26 12:29:25;;;;;;;6.22;2.97;;;21.20;70.90;;;;;;5092214;28;20046;-59
2023/09/26 12:31:51;;;;;;;9.15;2.88;;;21.30;70.80;;;;;;5078272;28;20046;-60
2023/09/26 12:34:17;;;;;;;4.72;2.80;;;21.30;70.70;;;;;;5072969;28;20041;-59
2023/09/26 12:36:42;;;;;;;5.47;2.80;;;21.30;70.60;;;;;;5073734;28;20472;-60
2023/09/26 12:39:08;;;;;;;5.75;2.90;;;21.30;70.50;;;;;;5072256;28;20040;-59
2023/09/26 12:41:34;;;;;;;7.00;3.22;;;21.30;70.40;;;;;;5074284;28;20075;-59